Time,TemperatureF,DewpointF,PressureIn,WindDirection,WindDirectionDegrees,WindSpeedMPH,WindSpeedGustMPH,Humidity,HourlyPrecipIn,Conditions,Clouds,dailyrainin,SoftwareType,DateUTC
2013-09-04 00:00:00,60.4,60.4,29.65,NW,309,0.0,0.0,100,0.00,,,0.00,Wunderground v.1.13,2013-09-04 04:00:00,
2013-09-04 00:30:00,59.7,59.4,29.64,NW,309,0.0,0.0,99,0.00,,,0.01,Wunderground v.1.13,2013-09-04 04:30:00,
2013-09-04 01:00:00,58.1,57.8,29.65,NW,309,0.0,0.0,99,0.00,,,0.01,Wunderground v.1.13,2013-09-04 05:00:00,
2013-09-04 01:30:00,57.1,56.8,29.65,NW,309,0.0,0.0,99,0.00,,,0.01,Wunderground v.1.13,2013-09-04 05:30:00,
2013-09-04 02:00:00,56.8,56.5,29.65,NW,309,0.0,0.0,99,0.00,,,0.01,Wunderground v.1.13,2013-09-04 06:00:00,
2013-09-04 02:30:00,57.2,57.2,29.65,NW,309,0.0,0.0,100,0.00,,,0.01,Wunderground v.1.13,2013-09-04 06:30:00,
2013-09-04 03:00:00,57.2,57.2,29.64,NW,309,0.0,0.0,100,0.00,,,0.01,Wunderground v.1.13,2013-09-04 07:00:00,
2013-09-04 03:30:00,57.7,57.7,29.63,NW,309,0.0,0.0,100,0.00,,,0.01,Wunderground v.1.13,2013-09-04 07:30:00,
2013-09-04 04:00:00,57.7,57.7,29.63,NW,309,0.0,0.0,100,0.00,,,0.01,Wunderground v.1.13,2013-09-04 08:00:00,
2013-09-04 04:30:00,57.1,56.8,29.63,NW,309,0.0,0.0,99,0.00,,,0.01,Wunderground v.1.13,2013-09-04 08:30:00,
2013-09-04 05:00:00,56.7,56.4,29.64,NW,309,0.0,0.0,99,0.00,,,0.01,Wunderground v.1.13,2013-09-04 09:00:00,
2013-09-04 05:30:00,56.7,56.7,29.63,NW,309,0.0,0.0,100,0.00,,,0.01,Wunderground v.1.13,2013-09-04 09:30:00,
2013-09-04 06:00:00,56.9,56.6,29.64,NW,309,0.0,0.0,99,0.00,,,0.01,Wunderground v.1.13,2013-09-04 10:00:00,
2013-09-04 06:30:00,57.3,57.3,29.64,NNW,334,0.0,0.0,100,0.00,,,0.01,Wunderground v.1.13,2013-09-04 10:30:00,
2013-09-04 07:00:00,57.9,57.6,29.65,NNW,344,0.0,0.0,99,0.00,,,0.01,Wunderground v.1.13,2013-09-04 11:00:00,
2013-09-04 07:30:00,58.5,58.2,29.65,NNW,343,0.0,0.0,99,0.00,,,0.01,Wunderground v.1.13,2013-09-04 11:30:00,
2013-09-04 08:00:00,59.2,58.6,29.64,NW,317,1.0,3.0,98,0.00,,,0.01,Wunderground v.1.13,2013-09-04 12:00:00,
2013-09-04 08:30:00,61.0,59.3,29.64,NW,305,1.0,3.0,94,0.00,,,0.01,Wunderground v.1.13,2013-09-04 12:30:00,
2013-09-04 09:00:00,61.3,58.7,29.64,ENE,74,2.0,2.0,91,0.00,,,0.01,Wunderground v.1.13,2013-09-04 13:00:00,
2013-09-04 09:30:00,63.4,59.5,29.63,North,360,3.0,3.0,87,0.00,,,0.01,Wunderground v.1.13,2013-09-04 13:30:00,
2013-09-04 10:00:00,64.2,58.9,29.63,ESE,113,2.0,7.0,83,0.00,,,0.01,Wunderground v.1.13,2013-09-04 14:00:00,
2013-09-04 10:30:00,66.0,59.3,29.62,East,96,4.0,6.0,79,0.00,,,0.01,Wunderground v.1.13,2013-09-04 14:30:00,
2013-09-04 11:00:00,67.9,59.7,29.63,NE,45,2.0,7.0,75,0.00,,,0.01,Wunderground v.1.13,2013-09-04 15:00:00,
2013-09-04 11:30:00,69.2,59.0,29.62,East,86,5.0,5.0,70,0.00,,,0.01,Wunderground v.1.13,2013-09-04 15:30:00,
2013-09-04 12:00:00,69.8,58.8,29.62,NE,40,2.0,7.0,68,0.00,,,0.01,Wunderground v.1.13,2013-09-04 16:00:00,
2013-09-04 12:30:00,70.8,59.3,29.61,NNW,347,3.0,3.0,67,0.00,,,0.01,Wunderground v.1.13,2013-09-04 16:30:00,
2013-09-04 13:00:00,70.0,58.5,29.61,NE,38,3.0,3.0,67,0.00,,,0.01,Wunderground v.1.13,2013-09-04 17:00:00,
2013-09-04 13:30:00,71.1,59.6,29.60,WNW,288,2.0,4.0,67,0.00,,,0.01,Wunderground v.1.13,2013-09-04 17:30:00,
2013-09-04 14:00:00,70.8,58.0,29.59,ENE,58,2.0,11.0,64,0.00,,,0.01,Wunderground v.1.13,2013-09-04 18:00:00,
2013-09-04 14:30:00,68.1,55.9,29.61,ENE,58,6.0,6.0,65,0.00,,,0.01,Wunderground v.1.13,2013-09-04 18:30:00,
2013-09-04 15:00:00,67.0,56.5,29.63,ESE,103,4.0,4.0,69,0.00,,,0.01,Wunderground v.1.13,2013-09-04 19:00:00,
2013-09-04 15:30:00,67.6,56.2,29.64,East,84,5.0,5.0,67,0.00,,,0.01,Wunderground v.1.13,2013-09-04 19:30:00,
2013-09-04 16:00:00,66.4,56.7,29.65,East,96,3.0,8.0,71,0.00,,,0.01,Wunderground v.1.13,2013-09-04 20:00:00,
2013-09-04 16:30:00,61.3,54.7,29.67,SSE,154,3.0,3.0,79,0.00,,,0.01,Wunderground v.1.13,2013-09-04 20:30:00,
2013-09-04 17:00:00,61.6,51.3,29.69,South,173,4.0,4.0,69,0.00,,,0.01,Wunderground v.1.13,2013-09-04 21:00:00,
2013-09-04 17:30:00,61.0,50.0,29.71,SSE,149,3.0,6.0,67,0.00,,,0.01,Wunderground v.1.13,2013-09-04 21:30:00,
2013-09-04 18:00:00,58.4,47.9,29.72,SSE,147,3.0,3.0,68,0.00,,,0.01,Wunderground v.1.13,2013-09-04 22:00:00,
2013-09-04 18:30:00,56.3,47.4,29.74,SE,140,0.0,0.0,72,0.00,,,0.01,Wunderground v.1.13,2013-09-04 22:30:00,
2013-09-04 19:00:00,54.2,46.1,29.75,East,89,1.0,1.0,74,0.00,,,0.01,Wunderground v.1.13,2013-09-04 23:00:00,
2013-09-04 19:30:00,51.5,46.2,29.77,ENE,65,0.0,0.0,82,0.00,,,0.01,Wunderground v.1.13,2013-09-04 23:30:00,
2013-09-04 20:00:00,48.2,44.8,29.80,ENE,65,0.0,0.0,88,0.00,,,0.01,Wunderground v.1.13,2013-09-05 00:00:00,
2013-09-04 20:30:00,47.0,44.2,29.81,ENE,65,0.0,0.0,90,0.00,,,0.01,Wunderground v.1.13,2013-09-05 00:30:00,
2013-09-04 21:00:00,46.6,43.5,29.81,ENE,65,0.0,0.0,89,0.00,,,0.01,Wunderground v.1.13,2013-09-05 01:00:00,
2013-09-04 21:30:00,46.9,43.8,29.82,ENE,66,0.0,0.0,89,0.00,,,0.01,Wunderground v.1.13,2013-09-05 01:30:00,
2013-09-04 22:00:00,44.5,42.6,29.82,ENE,66,0.0,0.0,93,0.00,,,0.01,Wunderground v.1.13,2013-09-05 02:00:00,
2013-09-04 22:30:00,42.8,41.5,29.83,ENE,66,0.0,0.0,95,0.00,,,0.01,Wunderground v.1.13,2013-09-05 02:30:00,
2013-09-04 23:00:00,41.6,40.5,29.83,ENE,66,0.0,0.0,96,0.00,,,0.01,Wunderground v.1.13,2013-09-05 03:00:00,
2013-09-04 23:30:00,40.9,40.1,29.84,ENE,66,0.0,0.0,97,0.00,,,0.01,Wunderground v.1.13,2013-09-05 03:30:00,